createdAt,value
2023-02-16T00:01:52.068Z,48.63
2023-02-16T00:03:56.855Z,55.47
2023-02-16T00:06:00.268Z,53.05
2023-02-16T00:08:03.701Z,55.38
2023-02-16T00:10:07.980Z,52.42
2023-02-16T00:12:36.258Z,55.50
2023-02-16T00:14:41.029Z,50.42
2023-02-16T00:16:44.468Z,53.15
2023-02-16T00:18:48.830Z,57.45
2023-02-16T00:20:52.136Z,56.50
2023-02-16T00:22:55.556Z,59.42
2023-02-16T00:24:58.898Z,59.50
2023-02-16T00:27:04.088Z,54.55
2023-02-16T00:29:15.383Z,51.75
2023-02-16T00:31:21.289Z,53.03
2023-02-16T00:33:25.858Z,51.83
2023-02-16T00:35:29.309Z,50.53
2023-02-16T00:37:32.644Z,52.92
2023-02-16T00:39:36.989Z,59.47
2023-02-16T00:41:53.852Z,56.63
2023-02-16T00:43:57.302Z,55.13
2023-02-16T00:46:02.108Z,52.47
2023-02-16T00:48:05.890Z,61.30
2023-02-16T00:50:17.112Z,56.08
2023-02-16T00:52:32.144Z,55.88
2023-02-16T00:54:35.304Z,57.17
2023-02-16T00:56:39.001Z,56.95
2023-02-16T00:58:46.319Z,55.83
2023-02-16T01:00:52.640Z,59.95
2023-02-16T01:02:59.709Z,55.33
2023-02-16T01:05:03.028Z,55.10
2023-02-16T01:07:29.637Z,56.95
2023-02-16T01:09:50.091Z,55.38
2023-02-16T01:11:53.330Z,57.33
2023-02-16T01:13:57.989Z,55.17
2023-02-16T01:16:01.305Z,57.10
2023-02-16T01:18:07.917Z,55.35
2023-02-16T01:20:16.920Z,62.55
2023-02-16T01:22:20.126Z,63.45
2023-02-16T01:24:23.398Z,59.08
2023-02-16T01:26:26.532Z,56.88
2023-02-16T01:28:29.737Z,59.03
2023-02-16T01:30:33.116Z,53.65
2023-02-16T01:32:36.407Z,61.30
2023-02-16T01:34:40.973Z,59.70
2023-02-16T01:36:46.152Z,59.08
2023-02-16T01:38:49.350Z,57.30
2023-02-16T01:41:01.801Z,62.65
2023-02-16T01:43:12.009Z,55.35
2023-02-16T01:45:19.139Z,61.58
2023-02-16T01:47:34.770Z,56.25
2023-02-16T01:49:38.033Z,60.03
2023-02-16T01:51:52.706Z,59.60
2023-02-16T01:54:00.877Z,64.57
2023-02-16T01:56:10.048Z,66.07
2023-02-16T01:58:19.736Z,63.40
2023-02-16T02:00:28.574Z,55.40
2023-02-16T02:02:36.908Z,60.00
2023-02-16T02:05:01.284Z,67.05
2023-02-16T02:07:06.055Z,63.17
2023-02-16T02:09:14.530Z,60.75
2023-02-16T02:11:23.493Z,61.42
2023-02-16T02:13:39.749Z,61.45
2023-02-16T02:17:46.641Z,60.10
2023-02-16T02:19:59.619Z,58.63
2023-02-16T02:22:49.641Z,58.15
2023-02-16T02:25:28.431Z,61.00
2023-02-16T02:27:35.437Z,58.35
2023-02-16T02:30:09.288Z,58.20
2023-02-16T02:32:22.820Z,58.67
2023-02-16T02:34:38.449Z,59.67
2023-02-16T02:36:51.819Z,60.10
2023-02-16T02:39:06.341Z,64.05
2023-02-16T02:41:19.027Z,59.25
2023-02-16T02:43:28.578Z,60.40
2023-02-16T02:45:37.640Z,59.88
2023-02-16T02:47:43.781Z,64.90
2023-02-16T02:49:51.712Z,64.50
2023-02-16T02:51:54.205Z,60.03
2023-02-16T02:54:15.093Z,67.57
2023-02-16T02:56:37.990Z,61.00
2023-02-16T02:59:06.451Z,50.65
2023-02-16T03:01:11.368Z,61.45
2023-02-16T03:03:20.041Z,63.38
2023-02-16T03:05:25.690Z,64.00
2023-02-16T03:07:44.309Z,59.75
2023-02-16T03:10:07.554Z,60.08
2023-02-16T03:12:30.682Z,63.65
2023-02-16T03:14:39.020Z,58.40
2023-02-16T03:16:45.587Z,61.70
2023-02-16T03:19:07.030Z,59.88
2023-02-16T03:21:28.753Z,62.85
2023-02-16T03:26:11.803Z,60.30
2023-02-16T03:28:33.016Z,65.07
2023-02-16T03:30:38.324Z,60.50
2023-02-16T03:32:41.681Z,64.30
2023-02-16T03:34:45.229Z,56.50
2023-02-16T03:36:52.270Z,63.92
2023-02-16T03:38:57.722Z,60.13
2023-02-16T03:41:01.325Z,58.28
2023-02-16T03:43:06.355Z,63.10
2023-02-16T03:45:10.246Z,59.72
2023-02-16T03:47:14.878Z,60.00
2023-02-16T03:49:18.631Z,62.92
2023-02-16T03:51:21.783Z,59.65
2023-02-16T03:53:25.098Z,55.72
2023-02-16T03:55:28.303Z,57.65
2023-02-16T03:57:31.560Z,58.50
2023-02-16T03:59:34.867Z,60.22
2023-02-16T04:01:38.124Z,58.72
2023-02-16T04:03:42.799Z,62.00
2023-02-16T04:05:46.473Z,59.25
2023-02-16T04:07:49.810Z,64.25
2023-02-16T04:09:52.941Z,56.58
2023-02-16T04:12:13.687Z,59.15
2023-02-16T04:14:17.086Z,59.23
2023-02-16T04:16:20.406Z,61.25
2023-02-16T04:18:23.641Z,61.58
2023-02-16T04:20:30.684Z,62.95
2023-02-16T04:22:33.947Z,64.30
2023-02-16T04:24:37.233Z,64.70
2023-02-16T04:26:40.413Z,60.75
2023-02-16T04:28:43.734Z,61.25
2023-02-16T04:30:46.971Z,61.58
2023-02-16T04:32:50.448Z,63.97
2023-02-16T04:34:53.717Z,61.22
2023-02-16T04:36:58.928Z,60.22
2023-02-16T04:39:02.279Z,59.92
2023-02-16T04:41:06.005Z,62.47
2023-02-16T04:43:09.317Z,67.28
2023-02-16T04:45:13.117Z,60.60
2023-02-16T04:47:16.354Z,64.55
2023-02-16T04:49:19.715Z,59.20
2023-02-16T04:51:23.017Z,59.33
2023-02-16T04:53:27.625Z,65.15
2023-02-16T04:55:31.018Z,59.28
2023-02-16T04:57:34.324Z,58.10
2023-02-16T04:59:37.709Z,57.47
2023-02-16T05:01:41.459Z,56.25
2023-02-16T05:03:44.712Z,53.15
2023-02-16T05:05:47.918Z,65.18
2023-02-16T05:07:51.256Z,53.58
2023-02-16T05:09:55.925Z,58.08
2023-02-16T05:12:16.327Z,60.10
2023-02-16T05:14:38.884Z,58.45
2023-02-16T05:16:42.600Z,55.97
2023-02-16T05:18:45.877Z,58.20
2023-02-16T05:21:06.518Z,59.13
2023-02-16T05:23:09.868Z,55.77
2023-02-16T05:25:14.603Z,53.97
2023-02-16T05:27:20.234Z,55.35
2023-02-16T05:29:24.063Z,56.72
2023-02-16T05:31:28.517Z,58.13
2023-02-16T05:33:31.844Z,56.13
2023-02-16T05:35:35.678Z,59.05
2023-02-16T05:37:41.045Z,59.22
2023-02-16T05:39:45.872Z,55.72
2023-02-16T05:41:50.910Z,58.45
2023-02-16T05:43:55.742Z,52.53
2023-02-16T05:45:58.961Z,53.63
2023-02-16T05:48:02.210Z,54.95
2023-02-16T05:50:06.287Z,57.17
2023-02-16T05:52:09.578Z,56.33
2023-02-16T05:54:17.464Z,59.20
2023-02-16T05:56:21.913Z,54.30
2023-02-16T05:58:26.612Z,58.88
2023-02-16T06:00:33.499Z,59.60
2023-02-16T06:02:36.912Z,53.40
2023-02-16T06:04:40.150Z,59.60
2023-02-16T06:06:44.151Z,54.30
2023-02-16T06:08:47.592Z,57.08
2023-02-16T06:10:51.399Z,54.63
2023-02-16T06:12:54.655Z,55.85
2023-02-16T06:14:59.438Z,57.25
2023-02-16T06:17:02.605Z,54.08
2023-02-16T06:19:07.100Z,55.95
2023-02-16T06:21:10.375Z,53.28
2023-02-16T06:23:14.683Z,54.63
2023-02-16T06:25:20.229Z,55.38
2023-02-16T06:27:23.809Z,52.03
2023-02-16T06:29:27.345Z,52.30
2023-02-16T06:31:33.907Z,52.90
2023-02-16T06:33:39.148Z,56.78
2023-02-16T06:35:42.404Z,55.03
2023-02-16T06:37:45.606Z,57.97
2023-02-16T06:39:48.828Z,50.92
2023-02-16T06:41:51.993Z,57.22
2023-02-16T06:43:55.145Z,56.20
2023-02-16T06:45:58.350Z,56.25
2023-02-16T06:48:02.926Z,57.30
2023-02-16T06:50:09.790Z,55.65
2023-02-16T06:52:13.003Z,60.40
2023-02-16T06:54:16.478Z,63.53
2023-02-16T06:56:19.764Z,60.17
2023-02-16T06:58:23.055Z,62.10
2023-02-16T07:00:26.575Z,58.00
2023-02-16T07:02:29.805Z,58.88
2023-02-16T07:04:34.393Z,56.17
2023-02-16T07:06:37.903Z,59.38
2023-02-16T07:08:41.077Z,60.38
2023-02-16T07:10:50.187Z,56.28
2023-02-16T07:12:53.818Z,58.60
2023-02-16T07:14:57.168Z,63.08
2023-02-16T07:17:04.209Z,59.97
2023-02-16T07:19:07.512Z,58.72
2023-02-16T07:21:12.207Z,59.03
2023-02-16T07:23:15.457Z,61.95
2023-02-16T07:25:18.837Z,60.45
2023-02-16T07:27:22.136Z,57.25
2023-02-16T07:29:25.366Z,57.15
2023-02-16T07:31:28.755Z,56.88
2023-02-16T07:33:32.072Z,61.00
2023-02-16T07:35:35.588Z,57.35
2023-02-16T07:37:40.248Z,57.25
2023-02-16T07:39:43.573Z,59.38
2023-02-16T07:41:46.896Z,60.67
2023-02-16T07:43:54.743Z,56.60
2023-02-16T07:45:58.039Z,55.80
2023-02-16T07:48:01.814Z,59.45
2023-02-16T07:50:05.576Z,58.67
2023-02-16T07:52:08.800Z,56.38
2023-02-16T07:54:13.530Z,56.08
2023-02-16T07:56:21.349Z,60.00
2023-02-16T07:58:30.484Z,59.40
2023-02-16T08:00:34.094Z,56.22
2023-02-16T08:02:37.473Z,59.15
2023-02-16T08:04:40.955Z,58.22
2023-02-16T08:06:44.188Z,61.30
2023-02-16T08:08:47.952Z,57.03
2023-02-16T08:10:52.853Z,59.33
2023-02-16T08:12:56.112Z,58.00
2023-02-16T08:14:59.421Z,57.50
2023-02-16T08:17:02.773Z,60.47
2023-02-16T08:19:06.167Z,60.08
2023-02-16T08:21:14.445Z,55.28
2023-02-16T08:23:17.784Z,53.45
2023-02-16T08:25:21.071Z,58.85
2023-02-16T08:27:26.925Z,60.65
2023-02-16T08:29:30.476Z,58.10
2023-02-16T08:31:36.643Z,57.42
2023-02-16T08:33:40.559Z,56.80
2023-02-16T08:35:45.254Z,57.75
2023-02-16T08:37:48.528Z,55.15
2023-02-16T08:39:52.088Z,63.72
2023-02-16T08:41:56.454Z,59.47
2023-02-16T08:44:02.411Z,58.25
2023-02-16T08:46:09.253Z,56.35
2023-02-16T08:48:12.909Z,56.75
2023-02-16T08:50:17.000Z,62.10
2023-02-16T08:52:20.557Z,57.15
2023-02-16T08:54:27.138Z,57.47
2023-02-16T08:56:30.889Z,53.65
2023-02-16T08:58:34.138Z,52.17
2023-02-16T09:00:39.047Z,58.05
2023-02-16T09:02:42.324Z,60.00
2023-02-16T09:04:47.801Z,55.65
2023-02-16T09:06:52.548Z,53.17
2023-02-16T09:08:57.903Z,58.95
2023-02-16T09:11:03.317Z,58.30
2023-02-16T09:13:06.816Z,52.85
2023-02-16T09:15:11.439Z,58.78
2023-02-16T09:17:16.495Z,58.42
2023-02-16T09:19:21.782Z,55.55
2023-02-16T09:21:27.047Z,57.58
2023-02-16T09:23:30.770Z,54.88
2023-02-16T09:25:36.768Z,57.20
2023-02-16T09:27:40.096Z,53.40
2023-02-16T09:29:43.952Z,54.60
2023-02-16T09:31:47.777Z,54.45
2023-02-16T09:33:53.362Z,57.05
2023-02-16T09:35:56.613Z,56.50
2023-02-16T09:38:00.053Z,54.95
2023-02-16T09:40:04.728Z,53.80
2023-02-16T09:42:21.653Z,55.17
2023-02-16T09:44:42.751Z,60.60
2023-02-16T09:46:47.749Z,52.47
2023-02-16T09:48:53.693Z,55.20
2023-02-16T09:50:59.965Z,50.90
2023-02-16T09:53:08.622Z,54.92
2023-02-16T09:55:14.715Z,59.05
2023-02-16T09:57:24.286Z,53.28
2023-02-16T09:59:43.725Z,52.55
2023-02-16T10:01:56.871Z,56.28
2023-02-16T10:04:17.531Z,53.75
2023-02-16T10:06:37.582Z,57.28
2023-02-16T10:08:45.367Z,54.88
2023-02-16T10:10:54.752Z,54.65
2023-02-16T10:13:05.164Z,57.67
2023-02-16T10:15:16.427Z,56.85
2023-02-16T10:17:29.790Z,57.45
2023-02-16T10:19:40.604Z,61.33
2023-02-16T10:21:47.895Z,63.13
2023-02-16T10:23:56.663Z,61.05
2023-02-16T10:26:06.447Z,61.72
2023-02-16T10:28:17.517Z,66.50
2023-02-16T10:30:24.002Z,65.20
2023-02-16T10:32:30.700Z,57.63
2023-02-16T10:34:46.133Z,57.42
2023-02-16T10:37:09.657Z,55.42
2023-02-16T10:39:19.401Z,57.85
2023-02-16T10:41:31.601Z,58.47
2023-02-16T10:43:45.076Z,54.85
2023-02-16T10:45:52.730Z,58.05
2023-02-16T10:47:55.991Z,59.53
2023-02-16T10:50:00.786Z,63.25
2023-02-16T10:52:05.124Z,58.83
2023-02-16T10:54:14.588Z,56.45
2023-02-16T10:56:32.925Z,59.83
2023-02-16T10:58:42.680Z,66.20
2023-02-16T11:00:52.993Z,57.55
2023-02-16T11:02:57.578Z,55.90
2023-02-16T11:05:02.216Z,58.10
2023-02-16T11:07:08.583Z,55.97
2023-02-16T11:09:16.711Z,56.88
2023-02-16T11:11:22.835Z,59.80
2023-02-16T11:13:31.472Z,57.42
2023-02-16T11:15:41.364Z,53.20
2023-02-16T11:17:53.472Z,58.22
2023-02-16T11:20:01.926Z,59.33
2023-02-16T11:22:10.645Z,59.03
2023-02-16T11:24:24.705Z,61.17
2023-02-16T11:26:28.997Z,55.58
2023-02-16T11:28:35.213Z,56.13
2023-02-16T11:30:41.396Z,60.55
2023-02-16T11:32:44.666Z,57.30
2023-02-16T11:34:50.344Z,56.30
2023-02-16T11:37:02.005Z,61.90
2023-02-16T11:39:11.100Z,61.70
2023-02-16T11:41:14.680Z,59.80
2023-02-16T11:43:19.645Z,64.75
2023-02-16T11:45:30.930Z,61.40
2023-02-16T11:47:36.705Z,57.13
2023-02-16T11:49:41.833Z,65.43
2023-02-16T11:51:45.005Z,59.47
2023-02-16T11:54:02.810Z,58.67
2023-02-16T11:56:24.038Z,60.83
2023-02-16T11:58:29.280Z,60.38
2023-02-16T12:00:34.646Z,59.63
2023-02-16T12:03:01.550Z,60.03
2023-02-16T12:05:22.128Z,59.83
2023-02-16T12:07:34.234Z,60.10
2023-02-16T12:09:48.917Z,62.78
2023-02-16T12:12:04.557Z,63.55
2023-02-16T12:14:25.016Z,70.47
2023-02-16T12:16:34.282Z,68.68
2023-02-16T12:18:46.204Z,70.95
2023-02-16T12:20:58.902Z,66.28
2023-02-16T12:23:14.020Z,70.65
2023-02-16T12:25:31.464Z,77.90
2023-02-16T12:27:41.222Z,79.13
2023-02-16T12:29:53.885Z,80.55
2023-02-16T12:32:10.309Z,75.43
2023-02-16T12:34:21.133Z,85.90
2023-02-16T12:36:50.508Z,80.82
2023-02-16T12:39:01.240Z,82.70
2023-02-16T12:41:19.917Z,83.60
2023-02-16T12:43:35.926Z,96.07
2023-02-16T12:45:44.240Z,92.03
2023-02-16T12:47:53.646Z,90.78
2023-02-16T12:50:01.106Z,91.35
2023-02-16T12:52:11.892Z,93.88
2023-02-16T12:54:18.736Z,95.50
2023-02-16T12:56:26.870Z,93.60
2023-02-16T12:58:36.011Z,95.20
2023-02-16T13:00:43.742Z,91.22
2023-02-16T13:02:52.426Z,96.63
2023-02-16T13:05:03.518Z,94.22
2023-02-16T13:07:18.161Z,98.05
2023-02-16T13:09:34.235Z,94.63
2023-02-16T13:11:41.954Z,93.95
2023-02-16T13:13:49.062Z,91.00
2023-02-16T13:16:03.803Z,97.75
2023-02-16T13:18:15.578Z,95.95
2023-02-16T13:22:45.995Z,93.45
2023-02-16T13:25:03.048Z,85.75
2023-02-16T13:27:17.076Z,94.93
2023-02-16T13:30:01.378Z,92.00
2023-02-16T13:32:19.288Z,89.30
2023-02-16T13:34:53.515Z,90.43
2023-02-16T13:37:23.510Z,84.93
2023-02-16T13:39:42.007Z,87.22
2023-02-16T13:42:22.912Z,87.03
2023-02-16T13:44:29.601Z,79.72
2023-02-16T13:46:39.954Z,89.72
2023-02-16T13:48:48.802Z,87.45
2023-02-16T13:50:58.488Z,88.28
2023-02-16T13:53:17.670Z,82.68
2023-02-16T13:55:25.859Z,91.03
2023-02-16T13:58:10.513Z,88.85
2023-02-16T14:00:29.634Z,85.53
2023-02-16T14:02:56.959Z,80.40
2023-02-16T14:05:10.971Z,77.85
2023-02-16T14:07:32.972Z,79.03
2023-02-16T14:09:51.159Z,81.50
2023-02-16T14:12:04.461Z,87.45
2023-02-16T14:14:30.287Z,85.18
2023-02-16T14:16:35.351Z,86.70
2023-02-16T14:18:43.841Z,91.25
2023-02-16T14:20:47.579Z,94.60
2023-02-16T14:22:57.491Z,96.85
2023-02-16T14:25:03.201Z,90.88
2023-02-16T14:27:09.425Z,92.85
2023-02-16T14:29:18.929Z,87.45
2023-02-16T14:31:25.401Z,100.13
2023-02-16T14:33:44.894Z,90.38
2023-02-16T14:36:05.459Z,95.38
2023-02-16T14:38:17.551Z,100.88
2023-02-16T14:40:25.785Z,96.43
2023-02-16T14:42:43.173Z,92.63
2023-02-16T14:45:03.537Z,94.25
2023-02-16T14:47:16.982Z,83.90
2023-02-16T14:50:09.366Z,90.30
2023-02-16T14:52:37.262Z,85.18
2023-02-16T14:55:23.557Z,84.03
2023-02-16T14:57:42.138Z,82.78
2023-02-16T14:59:55.714Z,87.18
2023-02-16T15:01:59.755Z,81.97
2023-02-16T15:04:03.111Z,83.45
2023-02-16T15:06:18.157Z,81.90
2023-02-16T15:08:25.513Z,83.82
2023-02-16T15:10:33.298Z,80.07
2023-02-16T15:12:42.041Z,81.43
2023-02-16T15:14:51.328Z,78.00
2023-02-16T15:17:00.621Z,75.78
2023-02-16T15:19:13.299Z,75.30
2023-02-16T15:21:28.713Z,74.28
2023-02-16T15:23:38.528Z,80.40
2023-02-16T15:25:42.166Z,82.60
2023-02-16T15:27:54.239Z,77.60
2023-02-16T15:30:09.594Z,80.47
2023-02-16T15:32:17.647Z,80.88
2023-02-16T15:34:30.034Z,86.35
2023-02-16T15:36:37.553Z,82.75
2023-02-16T15:38:43.283Z,84.20
2023-02-16T15:40:47.010Z,85.07
2023-02-16T15:42:51.934Z,85.35
2023-02-16T15:44:55.234Z,87.70
2023-02-16T15:47:08.200Z,81.53
2023-02-16T15:49:15.270Z,84.00
2023-02-16T15:51:25.063Z,86.90
2023-02-16T15:53:37.025Z,90.63
2023-02-16T15:55:44.748Z,84.50
2023-02-16T15:57:48.063Z,82.38
2023-02-16T15:59:55.282Z,91.13
2023-02-16T16:02:01.378Z,90.68
2023-02-16T16:04:09.358Z,94.78
2023-02-16T16:06:12.615Z,93.07
2023-02-16T16:08:17.446Z,92.30
2023-02-16T16:10:26.263Z,98.13
2023-02-16T16:12:30.917Z,101.72
2023-02-16T16:14:36.850Z,99.47
2023-02-16T16:16:40.396Z,101.82
2023-02-16T16:18:46.245Z,103.70
2023-02-16T16:21:00.844Z,98.70
2023-02-16T16:23:07.276Z,97.30
2023-02-16T16:25:43.579Z,106.53
2023-02-16T16:27:49.516Z,105.72
2023-02-16T16:29:53.068Z,103.07
2023-02-16T16:31:56.890Z,102.30
2023-02-16T16:34:02.469Z,100.03
2023-02-16T16:36:13.025Z,103.13
2023-02-16T16:38:25.361Z,96.82
2023-02-16T16:40:34.367Z,101.53
2023-02-16T16:42:40.186Z,100.05
2023-02-16T16:44:53.525Z,104.50
2023-02-16T16:47:12.926Z,97.95
2023-02-16T16:49:17.585Z,99.85
2023-02-16T16:51:37.627Z,98.20
2023-02-16T16:53:51.880Z,103.10
2023-02-16T16:55:55.168Z,99.88
2023-02-16T16:58:01.214Z,94.07
2023-02-16T17:00:11.331Z,100.95
2023-02-16T17:02:14.541Z,100.85
2023-02-16T17:04:17.874Z,103.43
2023-02-16T17:06:22.396Z,99.43
2023-02-16T17:08:25.900Z,99.03
2023-02-16T17:10:29.801Z,99.32
2023-02-16T17:12:34.859Z,102.50
2023-02-16T17:14:38.406Z,100.00
2023-02-16T17:16:48.382Z,98.22
2023-02-16T17:18:51.701Z,99.63
2023-02-16T17:20:54.996Z,94.53
2023-02-16T17:22:58.723Z,91.50
2023-02-16T17:25:02.201Z,94.93
2023-02-16T17:27:05.804Z,93.22
2023-02-16T17:29:09.942Z,97.25
2023-02-16T17:31:13.262Z,96.07
2023-02-16T17:33:18.067Z,94.22
2023-02-16T17:35:21.303Z,95.38
2023-02-16T17:37:24.632Z,93.82
2023-02-16T17:39:28.014Z,90.78
2023-02-16T17:41:31.394Z,91.05
2023-02-16T17:43:34.633Z,92.78
2023-02-16T17:45:37.924Z,94.18
2023-02-16T17:47:41.250Z,97.00
2023-02-16T17:49:46.182Z,93.30
2023-02-16T17:51:49.441Z,86.95
2023-02-16T17:53:53.036Z,91.15
2023-02-16T17:55:58.268Z,89.85
2023-02-16T17:58:01.469Z,90.15
2023-02-16T18:00:06.115Z,88.10
2023-02-16T18:02:10.913Z,85.45
2023-02-16T18:04:14.209Z,83.63
2023-02-16T18:06:20.778Z,86.05
2023-02-16T18:08:24.221Z,82.35
2023-02-16T18:10:35.811Z,93.38
2023-02-16T18:14:42.249Z,86.40
2023-02-16T18:16:45.603Z,83.60
2023-02-16T18:18:49.114Z,85.88
2023-02-16T18:20:52.451Z,84.93
2023-02-16T18:22:57.132Z,92.95
2023-02-16T18:25:00.803Z,82.32
2023-02-16T18:27:04.304Z,86.93
2023-02-16T18:29:07.742Z,79.03
2023-02-16T18:31:11.862Z,83.47
2023-02-16T18:33:15.251Z,82.28
2023-02-16T18:35:19.476Z,81.50
2023-02-16T18:37:22.697Z,81.45
2023-02-16T18:39:27.581Z,88.38
2023-02-16T18:41:31.035Z,87.70
2023-02-16T18:43:35.810Z,78.95
2023-02-16T18:45:39.173Z,80.95
2023-02-16T18:47:44.393Z,84.15
2023-02-16T18:49:49.525Z,81.88
2023-02-16T18:51:53.210Z,81.43
2023-02-16T18:53:58.616Z,82.32
2023-02-16T18:56:03.575Z,81.63
2023-02-16T18:58:08.603Z,85.53
2023-02-16T19:00:14.886Z,80.43
2023-02-16T19:02:18.279Z,83.22
2023-02-16T19:04:21.600Z,83.88
2023-02-16T19:06:25.222Z,88.60
2023-02-16T19:08:28.751Z,87.60
2023-02-16T19:10:32.611Z,86.25
2023-02-16T19:12:37.476Z,84.40
2023-02-16T19:14:40.832Z,94.38
2023-02-16T19:16:44.095Z,87.80
2023-02-16T19:18:47.648Z,93.10
2023-02-16T19:20:51.200Z,87.35
2023-02-16T19:22:54.507Z,92.15
2023-02-16T19:24:57.950Z,84.72
2023-02-16T19:27:01.658Z,88.22
2023-02-16T19:29:06.676Z,85.03
2023-02-16T19:31:18.084Z,86.03
2023-02-16T19:33:21.561Z,86.55
2023-02-16T19:35:25.576Z,97.15
2023-02-16T19:37:29.029Z,95.72
2023-02-16T19:39:32.657Z,101.57
2023-02-16T19:41:38.883Z,100.22
2023-02-16T19:43:43.233Z,94.93
2023-02-16T19:45:48.214Z,95.22
2023-02-16T19:47:52.504Z,97.30
2023-02-16T19:49:55.833Z,100.70
2023-02-16T19:52:02.345Z,94.20
2023-02-16T19:54:06.037Z,102.68
2023-02-16T19:56:12.393Z,98.68
2023-02-16T19:58:15.747Z,97.28
2023-02-16T20:00:19.476Z,93.65
2023-02-16T20:02:24.158Z,93.25
2023-02-16T20:04:27.545Z,97.72
2023-02-16T20:06:32.658Z,95.93
2023-02-16T20:08:35.896Z,91.47
2023-02-16T20:10:41.548Z,99.10
2023-02-16T20:12:45.000Z,99.32
2023-02-16T20:14:48.217Z,103.97
2023-02-16T20:16:51.959Z,100.03
2023-02-16T20:18:57.801Z,105.10
2023-02-16T20:21:01.531Z,102.45
2023-02-16T20:23:04.814Z,101.63
2023-02-16T20:25:08.456Z,101.30
2023-02-16T20:27:12.352Z,109.30
2023-02-16T20:29:16.296Z,101.43
2023-02-16T20:31:24.322Z,109.38
2023-02-16T20:33:27.775Z,103.40
2023-02-16T20:35:32.598Z,98.18
2023-02-16T20:37:35.903Z,103.50
2023-02-16T20:39:39.110Z,92.10
2023-02-16T20:41:42.352Z,99.40
2023-02-16T20:43:45.670Z,103.82
2023-02-16T20:45:49.230Z,92.57
2023-02-16T20:47:52.623Z,97.63
2023-02-16T20:49:56.104Z,94.28
2023-02-16T20:52:00.995Z,101.07
2023-02-16T20:54:05.561Z,109.93
2023-02-16T20:56:12.550Z,103.50
2023-02-16T20:58:15.947Z,102.75
2023-02-16T21:00:24.113Z,90.10
2023-02-16T21:02:27.492Z,99.18
2023-02-16T21:04:31.149Z,98.47
2023-02-16T21:06:34.642Z,99.28
2023-02-16T21:08:39.303Z,102.43
2023-02-16T21:10:42.845Z,93.82
2023-02-16T21:12:46.585Z,101.35
2023-02-16T21:14:49.917Z,99.85
2023-02-16T21:16:53.227Z,98.72
2023-02-16T21:18:56.576Z,92.85
2023-02-16T21:21:00.839Z,97.45
2023-02-16T21:23:04.632Z,93.63
2023-02-16T21:25:09.738Z,87.93
2023-02-16T21:27:13.400Z,96.80
2023-02-16T21:29:16.809Z,91.70
2023-02-16T21:31:22.885Z,96.65
2023-02-16T21:33:26.349Z,91.03
2023-02-16T21:35:29.905Z,94.22
2023-02-16T21:37:33.402Z,92.22
2023-02-16T21:39:54.362Z,86.35
2023-02-16T21:41:59.081Z,87.57
2023-02-16T21:44:04.522Z,86.95
2023-02-16T21:46:08.779Z,82.28
2023-02-16T21:48:30.747Z,80.55
2023-02-16T21:50:37.437Z,85.05
2023-02-16T21:52:40.814Z,87.60
2023-02-16T21:55:01.704Z,79.47
2023-02-16T21:57:06.580Z,78.80
2023-02-16T21:59:11.368Z,74.75
2023-02-16T22:01:15.354Z,75.75
2023-02-16T22:03:18.768Z,74.68
2023-02-16T22:05:22.458Z,78.55
2023-02-16T22:07:26.094Z,73.30
2023-02-16T22:09:29.618Z,77.05
2023-02-16T22:11:33.105Z,71.63
2023-02-16T22:13:38.550Z,78.25
2023-02-16T22:15:42.005Z,69.43
2023-02-16T22:17:45.850Z,75.38
2023-02-16T22:19:50.889Z,68.80
2023-02-16T22:21:54.552Z,74.88
2023-02-16T22:24:00.823Z,71.22
2023-02-16T22:26:06.364Z,72.72
2023-02-16T22:28:10.561Z,73.53
2023-02-16T22:30:15.815Z,72.10
2023-02-16T22:32:19.510Z,70.32
2023-02-16T22:34:23.483Z,74.85
2023-02-16T22:36:27.178Z,69.50
2023-02-16T22:38:30.454Z,74.03
2023-02-16T22:40:33.645Z,73.78
2023-02-16T22:42:37.265Z,73.00
2023-02-16T22:44:40.523Z,70.35
2023-02-16T22:46:45.201Z,73.75
2023-02-16T22:48:48.526Z,72.75
2023-02-16T22:50:58.660Z,72.47
2023-02-16T22:53:01.837Z,70.85
2023-02-16T22:55:05.638Z,71.15
2023-02-16T22:57:08.788Z,71.35
2023-02-16T22:59:12.485Z,68.75
2023-02-16T23:01:19.035Z,71.43
2023-02-16T23:03:23.637Z,69.82
2023-02-16T23:05:27.235Z,71.53
2023-02-16T23:07:30.380Z,68.53
2023-02-16T23:09:33.513Z,70.85
2023-02-16T23:11:36.992Z,68.32
2023-02-16T23:13:40.345Z,69.18
2023-02-16T23:15:43.596Z,68.88
2023-02-16T23:17:46.792Z,69.43
2023-02-16T23:19:52.141Z,72.47
2023-02-16T23:21:55.706Z,68.32
2023-02-16T23:24:00.012Z,66.97
2023-02-16T23:26:03.396Z,64.35
2023-02-16T23:28:06.715Z,66.05
2023-02-16T23:30:10.664Z,68.38
2023-02-16T23:32:13.876Z,73.22
2023-02-16T23:34:17.896Z,66.97
2023-02-16T23:36:22.570Z,71.00
2023-02-16T23:38:26.392Z,66.97
2023-02-16T23:40:29.615Z,68.72
2023-02-16T23:42:32.837Z,72.47
2023-02-16T23:44:36.022Z,73.55
2023-02-16T23:46:39.264Z,72.70
2023-02-16T23:48:42.465Z,69.47
2023-02-16T23:50:45.634Z,71.93
2023-02-16T23:52:50.263Z,70.45
2023-02-16T23:54:53.597Z,72.95
2023-02-16T23:56:59.022Z,68.70
2023-02-16T23:59:02.230Z,70.03
